Airfield :
LOGIN :

Register | Disclaimer

   EN    FR    IT 

 










Legend :    VFR   Marginal VFR   IFR   Intensive IFR   Very Intensive IFR
Visi :
Ceiling :
>= 8 km
>= 3000ft
5 to 8 km
1000 to 3000 ft
1500m to 5 km
500 to 1000 ft
800 to 1500m
200 to 500 ft
< 800m
< 200 ft
Symbols :   Thunderstorms  Fog  Heavy snow  Heavy precipitations  Wind > 20 kt
SIGMETs :     Misc.  Thunderstorms  Icing  Turbulence  Mountain Waves  Volcanic Ashes







- Airport Elevation : 1470 ft


LSMD - Dubendorf Military

CURRENT METAR :
  • 201350Z AUTO 12005KT 070V150 7000NDV RA SCT013 OVC017 11/11 Q1007 RMK

EXPIRED METARs :
  • 201320Z AUTO VRB04KT 9999NDV RA FEW008 BKN014 OVC038 11/11 Q1007 RMK
  • 201250Z AUTO 10005KT 070V130 4000NDV RA FEW009 BKN013 OVC020 11/11 Q1007 RMK
  • 201220Z AUTO 26004KT 210V320 2200NDV -RA SCT011 BKN017 BKN021 12/12 Q1007 RERA RMK
  • 201150Z AUTO 24005KT 170V300 6000NDV RA BKN010 BKN016 OVC019 12/12 Q1007 RMK
  • 201120Z AUTO VRB03KT 9000NDV RA BKN010 BKN015 BKN018 12/12 Q1007 RMK

Expired Forecast.
No reported NOTAMs for that airfield.



MET'MAP, your aeronautical weather chart ! - Copyright ORBIFLY December 2007 - Disclaimer

ORBIFLY MET'MAP TEAM :

Programming & Development : Alexandra Zaïnal
Concept & Development : Baudouin d'Aumeries
Co-Development & Prog : Marc-Olivier Méhu
Technical & hardware support : Manuel Goepfert

Contact : metmap@orbifly.com




SOURCES & CREDITS :

   NOAA